createdAt,value
2018-09-08T00:00:58.092Z,1007.92
2018-09-08T00:01:58.017Z,1007.93
2018-09-08T00:02:58.027Z,1007.93
2018-09-08T00:03:58.014Z,1007.94
2018-09-08T00:04:58.011Z,1007.93
2018-09-08T00:05:58.052Z,1007.93
2018-09-08T00:06:57.955Z,1007.92
2018-09-08T00:07:57.984Z,1007.91
2018-09-08T00:08:57.954Z,1007.93
2018-09-08T00:09:58.079Z,1007.91
2018-09-08T00:10:58.051Z,1007.91
2018-09-08T00:11:58.079Z,1007.89
2018-09-08T00:12:57.962Z,1007.89
2018-09-08T00:13:58.025Z,1007.91
2018-09-08T00:14:58.025Z,1007.91
2018-09-08T00:15:58.096Z,1007.89
2018-09-08T00:16:58.114Z,1007.90
2018-09-08T00:17:58.035Z,1007.89
2018-09-08T00:18:58.100Z,1007.90
2018-09-08T00:19:58.102Z,1007.92
2018-09-08T00:20:58.037Z,1007.91
2018-09-08T00:21:58.046Z,1007.94
2018-09-08T00:22:58.104Z,1007.92
2018-09-08T00:23:58.108Z,1007.90
2018-09-08T00:24:58.036Z,1007.95
2018-09-08T00:25:58.104Z,1007.96
2018-09-08T00:26:58.040Z,1007.94
2018-09-08T00:27:57.988Z,1007.92
2018-09-08T00:28:58.169Z,1007.94
2018-09-08T00:29:58.110Z,1007.93
2018-09-08T00:30:58.037Z,1007.96
2018-09-08T00:31:58.109Z,1007.93
2018-09-08T00:32:58.113Z,1007.99
2018-09-08T00:33:58.093Z,1008.01
2018-09-08T00:34:58.094Z,1007.95
2018-09-08T00:35:58.099Z,1007.95
2018-09-08T00:36:58.103Z,1007.92
2018-09-08T00:37:58.040Z,1007.94
2018-09-08T00:38:58.014Z,1007.97
2018-09-08T00:39:58.040Z,1007.96
2018-09-08T00:40:58.044Z,1007.96
2018-09-08T00:41:58.268Z,1007.93
2018-09-08T00:42:58.080Z,1007.97
2018-09-08T00:43:58.081Z,1007.93
2018-09-08T00:44:58.016Z,1007.94
2018-09-08T00:45:58.000Z,1007.97
2018-09-08T00:46:58.110Z,1008.00
2018-09-08T00:47:58.067Z,1007.98
2018-09-08T00:48:57.981Z,1007.98
2018-09-08T00:49:58.090Z,1007.96
2018-09-08T00:50:58.022Z,1008.02
2018-09-08T00:51:58.018Z,1008.00
2018-09-08T00:52:58.026Z,1008.02
2018-09-08T00:53:58.093Z,1008.02
2018-09-08T00:54:58.111Z,1008.02
2018-09-08T00:55:58.117Z,1008.00
2018-09-08T00:56:58.058Z,1008.05
2018-09-08T00:57:58.092Z,1008.05
2018-09-08T00:58:58.032Z,1008.02
2018-09-08T00:59:58.122Z,1008.02
2018-09-08T01:00:58.095Z,1008.05
2018-09-08T01:01:58.023Z,1008.03
2018-09-08T01:02:57.996Z,1008.03
2018-09-08T01:03:58.134Z,1008.07
2018-09-08T01:04:58.062Z,1008.08
2018-09-08T01:05:58.135Z,1008.08
2018-09-08T01:06:58.065Z,1008.12
2018-09-08T01:07:58.064Z,1008.12
2018-09-08T01:08:58.137Z,1008.14
2018-09-08T01:09:58.066Z,1008.15
2018-09-08T01:10:58.140Z,1008.14
2018-09-08T01:11:58.068Z,1008.19
2018-09-08T01:12:58.162Z,1008.15
2018-09-08T01:13:58.128Z,1008.15
2018-09-08T01:14:58.125Z,1008.19
2018-09-08T01:15:58.045Z,1008.16
2018-09-08T01:16:58.018Z,1008.14
2018-09-08T01:17:58.020Z,1008.15
2018-09-08T01:18:58.040Z,1008.11
2018-09-08T01:19:58.093Z,1008.17
2018-09-08T01:20:58.136Z,1008.17
2018-09-08T01:21:58.132Z,1008.17
2018-09-08T01:22:58.093Z,1008.18
2018-09-08T01:23:58.035Z,1008.16
2018-09-08T01:24:58.003Z,1008.13
2018-09-08T01:25:58.127Z,1008.13
2018-09-08T01:26:58.057Z,1008.11
2018-09-08T01:27:58.134Z,1008.17
2018-09-08T01:28:58.104Z,1008.16
2018-09-08T01:29:58.059Z,1008.12
2018-09-08T01:30:58.109Z,1008.14
2018-09-08T01:31:58.099Z,1008.20
2018-09-08T01:32:58.107Z,1008.16
2018-09-08T01:33:58.083Z,1008.15
2018-09-08T01:34:58.089Z,1008.15
2018-09-08T01:35:58.241Z,1008.16
2018-09-08T01:36:58.161Z,1008.24
2018-09-08T01:37:58.086Z,1008.20
2018-09-08T01:38:58.164Z,1008.16
2018-09-08T01:39:58.157Z,1008.22
2018-09-08T01:40:58.162Z,1008.20
2018-09-08T01:41:58.162Z,1008.15
2018-09-08T01:42:58.049Z,1008.24
2018-09-08T01:43:58.094Z,1008.22
2018-09-08T01:44:58.110Z,1008.18
2018-09-08T01:45:58.141Z,1008.21
2018-09-08T01:46:58.149Z,1008.25
2018-09-08T01:47:58.048Z,1008.26
2018-09-08T01:48:58.068Z,1008.23
2018-09-08T01:49:58.092Z,1008.29
2018-09-08T01:50:58.066Z,1008.28
2018-09-08T01:51:58.132Z,1008.35
2018-09-08T01:52:58.118Z,1008.36
2018-09-08T01:53:58.115Z,1008.35
2018-09-08T01:54:58.111Z,1008.34
2018-09-08T01:55:58.111Z,1008.33
2018-09-08T01:56:58.062Z,1008.35
2018-09-08T01:57:58.112Z,1008.37
2018-09-08T01:58:58.113Z,1008.36
2018-09-08T01:59:58.119Z,1008.31
2018-09-08T02:00:58.117Z,1008.35
2018-09-08T02:01:58.094Z,1008.32
2018-09-08T02:02:58.079Z,1008.31
2018-09-08T02:03:58.146Z,1008.28
2018-09-08T02:04:58.145Z,1008.25
2018-09-08T02:05:58.194Z,1008.26
2018-09-08T02:06:58.116Z,1008.24
2018-09-08T02:07:58.123Z,1008.24
2018-09-08T02:08:58.128Z,1008.24
2018-09-08T02:09:58.069Z,1008.26
2018-09-08T02:10:58.124Z,1008.23
2018-09-08T02:11:58.030Z,1008.27
2018-09-08T02:12:58.030Z,1008.27
2018-09-08T02:13:58.029Z,1008.28
2018-09-08T02:14:58.121Z,1008.27
2018-09-08T02:15:58.186Z,1008.28
2018-09-08T02:16:58.158Z,1008.28
2018-09-08T02:17:58.187Z,1008.35
2018-09-08T02:18:58.110Z,1008.31
2018-09-08T02:19:58.114Z,1008.27
2018-09-08T02:20:58.115Z,1008.31
2018-09-08T02:21:58.128Z,1008.31
2018-09-08T02:22:58.187Z,1008.33
2018-09-08T02:23:58.119Z,1008.32
2018-09-08T02:24:58.162Z,1008.32
2018-09-08T02:25:58.066Z,1008.33
2018-09-08T02:26:58.160Z,1008.28
2018-09-08T02:27:58.142Z,1008.29
2018-09-08T02:28:58.179Z,1008.32
2018-09-08T02:29:58.179Z,1008.27
2018-09-08T02:30:58.063Z,1008.26
2018-09-08T02:31:58.094Z,1008.28
2018-09-08T02:32:58.323Z,1008.25
2018-09-08T02:33:58.180Z,1008.32
2018-09-08T02:34:58.087Z,1008.29
2018-09-08T02:35:58.124Z,1008.36
2018-09-08T02:36:58.123Z,1008.35
2018-09-08T02:37:58.086Z,1008.40
2018-09-08T02:38:58.049Z,1008.37
2018-09-08T02:39:58.181Z,1008.42
2018-09-08T02:40:58.348Z,1008.35
2018-09-08T02:41:58.083Z,1008.37
2018-09-08T02:42:58.086Z,1008.34
2018-09-08T02:43:58.162Z,1008.36
2018-09-08T02:44:58.113Z,1008.36
2018-09-08T02:45:58.144Z,1008.37
2018-09-08T02:46:58.054Z,1008.36
2018-09-08T02:47:58.098Z,1008.37
2018-09-08T02:48:58.225Z,1008.37
2018-09-08T02:49:58.113Z,1008.33
2018-09-08T02:50:58.164Z,1008.35
2018-09-08T02:51:58.181Z,1008.36
2018-09-08T02:52:58.152Z,1008.29
2018-09-08T02:53:58.066Z,1008.33
2018-09-08T02:54:58.164Z,1008.36
2018-09-08T02:55:58.200Z,1008.38
2018-09-08T02:56:58.175Z,1008.31
2018-09-08T02:57:58.161Z,1008.31
2018-09-08T02:58:58.096Z,1008.33
2018-09-08T02:59:58.074Z,1008.24
2018-09-08T03:00:58.113Z,1008.31
2018-09-08T03:01:58.077Z,1008.32
2018-09-08T03:02:58.096Z,1008.30
2018-09-08T03:03:58.119Z,1008.26
2018-09-08T03:04:58.219Z,1008.33
2018-09-08T03:05:58.143Z,1008.29
2018-09-08T03:06:58.150Z,1008.31
2018-09-08T03:07:58.220Z,1008.32
2018-09-08T03:08:58.152Z,1008.33
2018-09-08T03:09:58.222Z,1008.32
2018-09-08T03:10:58.158Z,1008.31
2018-09-08T03:11:58.152Z,1008.30
2018-09-08T03:12:58.157Z,1008.31
2018-09-08T03:13:58.150Z,1008.33
2018-09-08T03:14:58.223Z,1008.30
2018-09-08T03:15:58.228Z,1008.30
2018-09-08T03:16:58.161Z,1008.30
2018-09-08T03:17:58.162Z,1008.24
2018-09-08T03:18:58.230Z,1008.24
2018-09-08T03:19:58.162Z,1008.26
2018-09-08T03:20:58.165Z,1008.28
2018-09-08T03:21:58.230Z,1008.34
2018-09-08T03:22:58.160Z,1008.37
2018-09-08T03:23:58.232Z,1008.35
2018-09-08T03:24:58.222Z,1008.36
2018-09-08T03:25:58.131Z,1008.31
2018-09-08T03:26:58.139Z,1008.38
2018-09-08T03:27:58.223Z,1008.35
2018-09-08T03:28:58.109Z,1008.34
2018-09-08T03:29:58.133Z,1008.32
2018-09-08T03:30:58.115Z,1008.36
2018-09-08T03:31:58.141Z,1008.36
2018-09-08T03:32:58.183Z,1008.39
2018-09-08T03:33:58.098Z,1008.44
2018-09-08T03:34:58.119Z,1008.39
2018-09-08T03:35:58.117Z,1008.37
2018-09-08T03:36:58.296Z,1008.42
2018-09-08T03:37:58.103Z,1008.43
2018-09-08T03:38:58.202Z,1008.43
2018-09-08T03:39:58.191Z,1008.48
2018-09-08T03:40:58.226Z,1008.48
2018-09-08T03:41:58.232Z,1008.49
2018-09-08T03:42:58.140Z,1008.57
2018-09-08T03:43:58.214Z,1008.54
2018-09-08T03:44:58.172Z,1008.55
2018-09-08T03:45:58.253Z,1008.61
2018-09-08T03:46:58.175Z,1008.62
2018-09-08T03:47:58.177Z,1008.62
2018-09-08T03:48:58.246Z,1008.61
2018-09-08T03:49:58.175Z,1008.65
2018-09-08T03:50:58.250Z,1008.61
2018-09-08T03:51:58.178Z,1008.58
2018-09-08T03:52:58.254Z,1008.58
2018-09-08T03:53:58.178Z,1008.62
2018-09-08T03:54:58.251Z,1008.61
2018-09-08T03:55:58.178Z,1008.60
2018-09-08T03:56:58.185Z,1008.56
2018-09-08T03:57:58.255Z,1008.54
2018-09-08T03:58:58.224Z,1008.59
2018-09-08T03:59:58.184Z,1008.64
2018-09-08T04:00:58.290Z,1008.69
2018-09-08T04:01:58.263Z,1008.69
2018-09-08T04:02:58.189Z,1008.68
2018-09-08T04:03:58.188Z,1008.72
2018-09-08T04:04:58.108Z,1008.74
2018-09-08T04:05:58.204Z,1008.73
2018-09-08T04:06:58.113Z,1008.76
2018-09-08T04:07:58.092Z,1008.78
2018-09-08T04:08:58.156Z,1008.81
2018-09-08T04:09:58.237Z,1008.81
2018-09-08T04:10:58.205Z,1008.85
2018-09-08T04:11:58.113Z,1008.84
2018-09-08T04:12:58.117Z,1008.87
2018-09-08T04:13:58.237Z,1008.86
2018-09-08T04:14:58.192Z,1008.87
2018-09-08T04:15:58.195Z,1008.82
2018-09-08T04:16:58.196Z,1008.85
2018-09-08T04:17:58.247Z,1008.88
2018-09-08T04:18:58.198Z,1008.86
2018-09-08T04:19:58.271Z,1008.87
2018-09-08T04:20:58.272Z,1008.88
2018-09-08T04:21:58.272Z,1008.91
2018-09-08T04:22:58.209Z,1008.94
2018-09-08T04:23:58.294Z,1008.92
2018-09-08T04:24:58.176Z,1008.96
2018-09-08T04:25:58.243Z,1008.96
2018-09-08T04:26:58.331Z,1008.95
2018-09-08T04:27:58.223Z,1008.96
2018-09-08T04:28:58.180Z,1008.97
2018-09-08T04:29:58.134Z,1008.96
2018-09-08T04:30:58.154Z,1008.93
2018-09-08T04:31:58.138Z,1008.95
2018-09-08T04:32:58.184Z,1008.96
2018-09-08T04:33:58.231Z,1008.94
2018-09-08T04:34:58.206Z,1008.92
2018-09-08T04:35:58.279Z,1008.92
2018-09-08T04:36:58.206Z,1008.92
2018-09-08T04:37:58.283Z,1008.92
2018-09-08T04:38:58.291Z,1008.92
2018-09-08T04:39:58.214Z,1008.92
2018-09-08T04:40:58.346Z,1008.92
2018-09-08T04:41:58.285Z,1008.92
2018-09-08T04:42:58.295Z,1008.92
2018-09-08T04:43:58.212Z,1008.92
2018-09-08T04:44:58.290Z,1008.92
2018-09-08T04:45:58.214Z,1008.92
2018-09-08T04:46:58.289Z,1008.92
2018-09-08T04:47:58.225Z,1008.92
2018-09-08T04:48:58.219Z,1008.92
2018-09-08T04:49:58.306Z,1008.92
2018-09-08T04:50:58.292Z,1008.92
2018-09-08T04:51:58.228Z,1008.92
2018-09-08T04:52:58.225Z,1008.92
2018-09-08T04:53:58.294Z,1008.92
2018-09-08T04:54:58.224Z,1008.92
2018-09-08T04:55:58.221Z,1008.92
2018-09-08T04:56:58.235Z,1008.92
2018-09-08T04:57:58.222Z,1008.92
2018-09-08T04:58:58.299Z,1008.92
2018-09-08T04:59:58.226Z,1008.92
2018-09-08T05:00:58.298Z,1008.92
2018-09-08T05:01:58.302Z,1008.92
2018-09-08T05:02:58.224Z,1008.92
2018-09-08T05:03:58.302Z,1008.92
2018-09-08T05:04:58.249Z,1008.92
2018-09-08T05:05:58.202Z,1008.92
2018-09-08T05:06:58.182Z,1008.92
2018-09-08T05:07:58.248Z,1008.92
2018-09-08T05:08:58.267Z,1008.92
2018-09-08T05:09:58.183Z,1008.92
2018-09-08T05:10:58.184Z,1008.92
2018-09-08T05:11:58.309Z,1008.92
2018-09-08T05:12:58.186Z,1008.92
2018-09-08T05:13:58.294Z,1008.92
2018-09-08T05:14:58.241Z,1008.92
2018-09-08T05:15:58.321Z,1008.92
2018-09-08T05:16:58.236Z,1008.92
2018-09-08T05:17:58.314Z,1008.92
2018-09-08T05:18:58.245Z,1008.92
2018-09-08T05:19:58.235Z,1008.92
2018-09-08T05:20:58.318Z,1008.92
2018-09-08T05:21:58.314Z,1008.92
2018-09-08T05:22:58.242Z,1008.92
2018-09-08T05:23:58.320Z,1008.92
2018-09-08T05:24:58.249Z,1008.92
2018-09-08T05:25:58.401Z,1008.92
2018-09-08T05:26:58.315Z,1008.92
2018-09-08T05:27:58.243Z,1008.92
2018-09-08T05:28:58.318Z,1008.92
2018-09-08T05:29:58.244Z,1008.92
2018-09-08T05:30:58.320Z,1008.92
2018-09-08T05:31:58.243Z,1008.92
2018-09-08T05:32:58.320Z,1008.92
2018-09-08T05:33:58.244Z,1008.92
2018-09-08T05:34:58.303Z,1008.92
2018-09-08T05:35:58.327Z,1008.92
2018-09-08T05:36:58.325Z,1008.92
2018-09-08T05:37:58.236Z,1008.92
2018-09-08T05:38:58.329Z,1008.92
2018-09-08T05:39:58.278Z,1008.92
2018-09-08T05:40:58.326Z,1008.92
2018-09-08T05:41:58.250Z,1008.92
2018-09-08T05:42:58.377Z,1008.92
2018-09-08T05:43:58.252Z,1008.92
2018-09-08T05:44:58.291Z,1008.92
2018-09-08T05:45:58.230Z,1008.92
2018-09-08T05:46:58.272Z,1008.92
2018-09-08T05:47:58.295Z,1008.92
2018-09-08T05:48:58.328Z,1008.92
2018-09-08T05:49:58.231Z,1008.92
2018-09-08T05:50:58.296Z,1008.92
2018-09-08T05:51:58.212Z,1008.92
2018-09-08T05:52:58.328Z,1008.92
2018-09-08T05:53:58.375Z,1008.92
2018-09-08T05:54:58.340Z,1008.92
2018-09-08T05:55:58.335Z,1008.92
2018-09-08T05:56:58.364Z,1008.92
2018-09-08T05:57:58.338Z,1008.92
2018-09-08T05:58:58.267Z,1008.92
2018-09-08T05:59:58.338Z,1008.92
2018-09-08T06:00:58.266Z,1008.92
2018-09-08T06:01:58.342Z,1008.92
2018-09-08T06:02:58.268Z,1008.92
2018-09-08T06:03:58.354Z,1008.92
2018-09-08T06:04:58.342Z,1008.92
2018-09-08T06:05:58.268Z,1008.92
2018-09-08T06:06:58.296Z,1008.92
2018-09-08T06:07:58.355Z,1008.92
2018-09-08T06:08:58.299Z,1008.92
2018-09-08T06:09:58.347Z,1008.92
2018-09-08T06:10:58.273Z,1008.92
2018-09-08T06:11:58.352Z,1008.92
2018-09-08T06:12:58.298Z,1008.92
2018-09-08T06:13:58.272Z,1008.92
2018-09-08T06:14:58.277Z,1008.92
2018-09-08T06:15:58.265Z,1008.92
2018-09-08T06:16:58.347Z,1008.92
2018-09-08T06:17:58.276Z,1008.92
2018-09-08T06:18:58.353Z,1008.92
2018-09-08T06:19:58.280Z,1008.92
2018-09-08T06:20:58.357Z,1008.92
2018-09-08T06:21:58.286Z,1008.92
2018-09-08T06:22:58.254Z,1008.92
2018-09-08T06:23:58.357Z,1008.92
2018-09-08T06:24:58.289Z,1008.92
2018-09-08T06:25:58.358Z,1008.92
2018-09-08T06:26:58.289Z,1008.92
2018-09-08T06:27:58.359Z,1008.92
2018-09-08T06:28:58.287Z,1008.92
2018-09-08T06:29:58.362Z,1008.92
2018-09-08T06:30:58.287Z,1008.92
2018-09-08T06:31:58.363Z,1008.92
2018-09-08T06:32:58.284Z,1008.92
2018-09-08T06:33:58.378Z,1008.92
2018-09-08T06:34:58.252Z,1008.92
2018-09-08T06:35:58.267Z,1008.92
2018-09-08T06:36:58.248Z,1008.92
2018-09-08T06:37:58.364Z,1008.92
2018-09-08T06:38:58.269Z,1008.92
2018-09-08T06:39:58.344Z,1008.92
2018-09-08T06:40:58.248Z,1008.92
2018-09-08T06:41:58.313Z,1008.92
2018-09-08T06:42:58.271Z,1008.92
2018-09-08T06:43:58.320Z,1008.92
2018-09-08T06:44:58.417Z,1008.92
2018-09-08T06:45:58.347Z,1008.92
2018-09-08T06:46:58.271Z,1008.92
2018-09-08T06:47:58.318Z,1008.92
2018-09-08T06:48:58.379Z,1008.92
2018-09-08T06:49:58.347Z,1008.92
2018-09-08T06:50:58.320Z,1008.92
2018-09-08T06:51:58.366Z,1008.92
2018-09-08T06:52:58.273Z,1008.92
2018-09-08T06:53:58.344Z,1008.92
2018-09-08T06:54:58.337Z,1008.92
2018-09-08T06:55:58.389Z,1008.92
2018-09-08T06:56:58.392Z,1008.92
2018-09-08T06:57:58.328Z,1008.92
2018-09-08T06:58:58.384Z,1008.92
2018-09-08T06:59:58.315Z,1008.92
2018-09-08T07:00:58.265Z,1008.92
2018-09-08T07:01:58.309Z,1008.92
2018-09-08T07:02:58.385Z,1008.92
2018-09-08T07:03:58.331Z,1008.92
2018-09-08T07:04:58.528Z,1008.92
2018-09-08T07:05:58.327Z,1008.92
2018-09-08T07:06:58.260Z,1008.92
2018-09-08T07:07:58.295Z,1008.92
2018-09-08T07:08:58.292Z,1008.92
2018-09-08T07:09:58.261Z,1008.92
2018-09-08T07:10:58.430Z,1008.92
2018-09-08T07:11:58.376Z,1008.92
2018-09-08T07:12:58.390Z,1008.92
2018-09-08T07:13:58.312Z,1008.92
2018-09-08T07:14:58.354Z,1008.92
2018-09-08T07:15:58.270Z,1008.92
2018-09-08T07:16:58.291Z,1008.92
2018-09-08T07:17:58.267Z,1008.92
2018-09-08T07:18:58.276Z,1008.92
2018-09-08T07:19:58.299Z,1008.92
2018-09-08T07:20:58.338Z,1008.92
2018-09-08T07:21:58.295Z,1008.92
2018-09-08T07:22:58.349Z,1008.92
2018-09-08T07:23:58.309Z,1008.92
2018-09-08T07:24:58.462Z,1008.92
2018-09-08T07:25:58.400Z,1008.92
2018-09-08T07:26:58.328Z,1008.92
2018-09-08T07:27:58.406Z,1008.92
2018-09-08T07:28:58.329Z,1008.92
2018-09-08T07:29:58.406Z,1008.92
2018-09-08T07:30:58.343Z,1008.92
2018-09-08T07:31:58.409Z,1008.92
2018-09-08T07:32:58.337Z,1008.92
2018-09-08T07:33:58.335Z,1008.92
2018-09-08T07:34:58.366Z,1008.92
2018-09-08T07:35:58.307Z,1008.92
2018-09-08T07:36:58.298Z,1008.92
2018-09-08T07:37:58.407Z,1008.92
2018-09-08T07:38:58.350Z,1008.92
2018-09-08T07:39:58.287Z,1008.92
2018-09-08T07:40:58.397Z,1008.92
2018-09-08T07:41:58.371Z,1008.92
2018-09-08T07:42:58.355Z,1008.92
2018-09-08T07:43:58.287Z,1008.92
2018-09-08T07:44:58.370Z,1008.92
2018-09-08T07:45:58.418Z,1008.92
2018-09-08T07:46:58.289Z,1008.92
2018-09-08T07:47:58.293Z,1008.92
2018-09-08T07:48:58.378Z,1008.92
2018-09-08T07:49:58.407Z,1008.92
2018-09-08T07:50:58.473Z,1008.92
2018-09-08T07:51:58.317Z,1008.92
2018-09-08T07:52:58.413Z,1008.92
2018-09-08T07:53:58.463Z,1008.92
2018-09-08T07:54:58.350Z,1008.92
2018-09-08T07:55:58.426Z,1008.92
2018-09-08T07:56:58.345Z,1008.92
2018-09-08T07:57:58.431Z,1008.92
2018-09-08T07:58:58.424Z,1008.92
2018-09-08T07:59:58.353Z,1008.92
2018-09-08T08:00:58.354Z,1008.92
2018-09-08T08:01:58.425Z,1008.92
2018-09-08T08:02:58.358Z,1008.92
2018-09-08T08:03:58.428Z,1008.92
2018-09-08T08:04:58.423Z,1008.92
2018-09-08T08:05:58.332Z,1008.92
2018-09-08T08:06:58.413Z,1008.92
2018-09-08T08:07:58.370Z,1008.92
2018-09-08T08:08:58.300Z,1008.92
2018-09-08T08:09:58.440Z,1008.92
2018-09-08T08:10:58.353Z,1008.92
2018-09-08T08:11:58.428Z,1008.92
2018-09-08T08:12:58.374Z,1008.92
2018-09-08T08:13:58.435Z,1008.92
2018-09-08T08:14:58.435Z,1008.92
2018-09-08T08:15:58.360Z,1008.92
2018-09-08T08:16:58.440Z,1008.92
2018-09-08T08:17:58.441Z,1008.92
2018-09-08T08:18:58.369Z,1008.92
2018-09-08T08:19:58.437Z,1008.92
2018-09-08T08:20:58.435Z,1008.92
2018-09-08T08:21:58.367Z,1008.92
2018-09-08T08:22:58.444Z,1008.92
2018-09-08T08:23:58.369Z,1008.92
2018-09-08T08:24:58.437Z,1008.92
2018-09-08T08:25:58.345Z,1008.92
2018-09-08T08:26:58.354Z,1008.92
2018-09-08T08:27:58.353Z,1008.92
2018-09-08T08:28:58.329Z,1008.92
2018-09-08T08:29:58.451Z,1008.92
2018-09-08T08:30:58.381Z,1008.92
2018-09-08T08:31:58.447Z,1008.92
2018-09-08T08:32:58.320Z,1008.92
2018-09-08T08:33:58.405Z,1008.92
2018-09-08T08:34:58.343Z,1008.92
2018-09-08T08:35:58.357Z,1008.92
2018-09-08T08:36:58.331Z,1008.92
2018-09-08T08:37:58.338Z,1008.92
2018-09-08T08:38:58.304Z,1008.92
2018-09-08T08:39:58.429Z,1008.92
2018-09-08T08:40:58.305Z,1008.92
2018-09-08T08:41:58.399Z,1008.92
2018-09-08T08:42:58.319Z,1008.92
2018-09-08T08:43:58.421Z,1008.92
2018-09-08T08:44:58.413Z,1008.92
2018-09-08T08:45:58.347Z,1008.92
2018-09-08T08:46:58.349Z,1008.92
2018-09-08T08:47:58.350Z,1008.92
2018-09-08T08:48:58.392Z,1008.92
2018-09-08T08:49:58.425Z,1008.92
2018-09-08T08:50:58.407Z,1008.92
2018-09-08T08:51:58.411Z,1008.92
2018-09-08T08:52:58.401Z,1008.92
2018-09-08T08:53:58.313Z,1008.92
2018-09-08T08:54:58.356Z,1008.92
2018-09-08T08:55:58.361Z,1008.92
2018-09-08T08:56:58.366Z,1008.92
2018-09-08T08:57:58.357Z,1008.92
2018-09-08T08:58:58.435Z,1008.92
2018-09-08T08:59:58.411Z,1008.92
2018-09-08T09:00:58.430Z,1008.92
2018-09-08T09:01:58.506Z,1008.92
2018-09-08T09:02:58.452Z,1008.92
2018-09-08T09:03:58.338Z,1008.92
2018-09-08T09:04:58.347Z,1008.92
2018-09-08T09:05:58.405Z,1008.92
2018-09-08T09:06:58.869Z,1008.92
2018-09-08T09:07:58.395Z,1008.92
2018-09-08T09:08:58.398Z,1008.92
2018-09-08T09:09:58.480Z,1008.92
2018-09-08T09:10:58.410Z,1008.92
2018-09-08T09:11:58.488Z,1008.92
2018-09-08T09:12:58.433Z,1008.92
2018-09-08T09:13:58.472Z,1008.92
2018-09-08T09:14:58.401Z,1008.92
2018-09-08T09:15:58.479Z,1008.92
2018-09-08T09:16:58.403Z,1008.92
2018-09-08T09:17:58.485Z,1008.92
2018-09-08T09:18:58.888Z,1008.92
2018-09-08T09:19:58.491Z,1008.92
2018-09-08T09:20:58.482Z,1008.92
2018-09-08T09:21:58.411Z,1008.92
2018-09-08T09:22:58.496Z,1008.92
2018-09-08T09:23:58.501Z,1008.92
2018-09-08T09:24:58.437Z,1008.92
2018-09-08T09:25:58.504Z,1008.92
2018-09-08T09:26:58.410Z,1008.92
2018-09-08T09:27:58.406Z,1008.92
2018-09-08T09:28:58.411Z,1008.92
2018-09-08T09:29:58.434Z,1008.92
2018-09-08T09:30:58.418Z,1008.92
2018-09-08T09:31:58.492Z,1008.92
2018-09-08T09:32:58.400Z,1008.92
2018-09-08T09:33:58.416Z,1008.92
2018-09-08T09:34:58.487Z,1008.92
2018-09-08T09:35:58.435Z,1008.92
2018-09-08T09:36:58.384Z,1008.92
2018-09-08T09:37:58.402Z,1008.92
2018-09-08T09:38:58.457Z,1008.92
2018-09-08T09:39:58.459Z,1008.92
2018-09-08T09:40:58.351Z,1008.92
2018-09-08T09:41:58.458Z,1008.92
2018-09-08T09:42:58.444Z,1008.92
2018-09-08T09:43:58.498Z,1008.92
2018-09-08T09:44:58.393Z,1008.92
2018-09-08T09:45:58.441Z,1008.92
2018-09-08T09:46:58.443Z,1008.92
2018-09-08T09:47:58.397Z,1008.92
2018-09-08T09:48:58.460Z,1008.92
2018-09-08T09:49:58.473Z,1008.92
2018-09-08T09:50:58.468Z,1008.92
2018-09-08T09:51:58.468Z,1008.92
2018-09-08T09:52:58.509Z,1008.92
2018-09-08T09:53:58.376Z,1008.92
2018-09-08T09:54:58.492Z,1008.92
2018-09-08T09:55:58.410Z,1008.92
2018-09-08T09:56:58.401Z,1008.92
2018-09-08T09:57:58.493Z,1008.92
2018-09-08T09:58:58.503Z,1008.92
2018-09-08T09:59:58.407Z,1008.92
2018-09-08T10:00:58.459Z,1008.92
2018-09-08T10:01:58.473Z,1008.92
2018-09-08T10:02:58.493Z,1008.92
2018-09-08T10:03:58.502Z,1008.92
2018-09-08T10:04:58.408Z,1008.92
2018-09-08T10:05:58.456Z,1008.92
2018-09-08T10:06:58.518Z,1008.92
2018-09-08T10:07:58.438Z,1008.92
2018-09-08T10:08:58.519Z,1008.92
2018-09-08T10:09:58.485Z,1008.92
2018-09-08T10:10:58.516Z,1008.92
2018-09-08T10:11:58.471Z,1008.92
2018-09-08T10:12:58.511Z,1008.92
2018-09-08T10:13:58.443Z,1008.92
2018-09-08T10:14:58.520Z,1008.92
2018-09-08T10:15:58.463Z,1008.92
2018-09-08T10:16:58.413Z,1008.92
2018-09-08T10:17:58.425Z,1008.92
2018-09-08T10:18:58.489Z,1008.92
2018-09-08T10:19:58.399Z,1008.92
2018-09-08T10:20:58.399Z,1008.92
2018-09-08T10:21:58.519Z,1008.92
2018-09-08T10:22:58.452Z,1008.92
2018-09-08T10:24:05.157Z,1008.92
2018-09-08T10:24:58.422Z,1008.92
2018-09-08T10:25:58.510Z,1008.92
2018-09-08T10:26:58.513Z,1008.92
2018-09-08T10:27:58.585Z,1008.92
2018-09-08T10:28:58.515Z,1008.92
2018-09-08T10:29:58.859Z,1008.92
2018-09-08T10:30:58.517Z,1008.92
2018-09-08T10:31:58.452Z,1008.92
2018-09-08T10:32:58.525Z,1008.92
2018-09-08T10:33:58.406Z,1008.92
2018-09-08T10:34:58.404Z,1008.92
2018-09-08T10:35:58.536Z,1008.92
2018-09-08T10:36:58.457Z,1008.92
2018-09-08T10:37:58.535Z,1008.92
2018-09-08T10:38:58.466Z,1008.92
2018-09-08T10:39:58.539Z,1008.92
2018-09-08T10:40:58.538Z,1008.92
2018-09-08T10:41:58.461Z,1008.92
2018-09-08T10:42:58.540Z,1008.92
2018-09-08T10:43:58.465Z,1008.92
2018-09-08T10:45:58.468Z,1008.92
2018-09-08T10:46:58.463Z,1008.92
2018-09-08T10:47:58.539Z,1008.92
2018-09-08T10:48:58.469Z,1008.92
2018-09-08T10:49:58.544Z,1008.92
2018-09-08T10:50:58.488Z,1008.92
2018-09-08T10:51:58.542Z,1008.92
2018-09-08T10:52:58.467Z,1008.92
2018-09-08T10:53:58.473Z,1008.92
2018-09-08T10:54:58.546Z,1008.92
2018-09-08T10:55:58.471Z,1008.92
2018-09-08T10:56:58.509Z,1008.92
2018-09-08T10:57:58.510Z,1008.92
2018-09-08T10:58:58.461Z,1008.92
2018-09-08T10:59:58.514Z,1008.92
2018-09-08T11:00:58.513Z,1008.92
2018-09-08T11:01:58.549Z,1008.92
2018-09-08T11:02:58.430Z,1008.92
2018-09-08T11:03:58.554Z,1008.92
2018-09-08T11:04:58.551Z,1008.92
2018-09-08T11:05:58.464Z,1008.92
2018-09-08T11:06:58.517Z,1008.92
2018-09-08T11:07:58.490Z,1008.92
2018-09-08T11:08:58.461Z,1008.92
2018-09-08T11:09:58.412Z,1008.92
2018-09-08T11:10:58.422Z,1008.92
2018-09-08T11:11:58.419Z,1008.92
2018-09-08T11:12:58.500Z,1008.92
2018-09-08T11:13:58.456Z,1008.92
2018-09-08T11:14:58.506Z,1008.92
2018-09-08T11:15:58.412Z,1008.92
2018-09-08T11:16:58.464Z,1008.92
2018-09-08T11:17:58.491Z,1008.92
2018-09-08T11:18:58.446Z,1008.92
2018-09-08T11:19:58.468Z,1008.92
2018-09-08T11:20:58.451Z,1008.92
2018-09-08T11:21:58.493Z,1008.92
2018-09-08T11:22:58.532Z,1008.92
2018-09-08T11:23:58.496Z,1008.92
2018-09-08T11:24:58.495Z,1008.92
2018-09-08T11:25:58.457Z,1008.92
2018-09-08T11:26:58.458Z,1008.92
2018-09-08T11:27:58.511Z,1008.92
2018-09-08T11:28:58.510Z,1008.92
2018-09-08T11:29:58.509Z,1008.92
2018-09-08T11:30:58.463Z,1008.92
2018-09-08T11:31:58.405Z,1008.92
2018-09-08T11:32:58.502Z,1008.92
2018-09-08T11:33:58.468Z,1008.92
2018-09-08T11:34:58.405Z,1008.92
2018-09-08T11:35:58.577Z,1008.92
2018-09-08T11:36:58.579Z,1008.92
2018-09-08T11:37:58.606Z,1008.92
2018-09-08T11:38:58.503Z,1008.92
2018-09-08T11:39:58.507Z,1008.92
2018-09-08T11:40:58.501Z,1008.92
2018-09-08T11:41:58.492Z,1008.92
2018-09-08T11:42:58.506Z,1008.92
2018-09-08T11:43:58.581Z,1008.92
2018-09-08T11:44:58.611Z,1008.92
2018-09-08T11:45:58.541Z,1008.92
2018-09-08T11:46:58.513Z,1008.92
2018-09-08T11:47:58.465Z,1008.92
2018-09-08T11:48:58.542Z,1008.92
2018-09-08T11:49:58.553Z,1008.92
2018-09-08T11:50:58.515Z,1008.92
2018-09-08T11:51:58.470Z,1008.92
2018-09-08T11:52:58.558Z,1008.92
2018-09-08T11:53:58.442Z,1008.92
2018-09-08T11:54:58.479Z,1008.92
2018-09-08T11:55:58.464Z,1008.92
2018-09-08T11:56:58.531Z,1008.92
2018-09-08T11:57:58.536Z,1008.92
2018-09-08T11:58:58.470Z,1008.92
2018-09-08T11:59:58.489Z,1008.92
2018-09-08T12:00:58.558Z,1008.92
2018-09-08T12:01:58.472Z,1008.92
2018-09-08T12:02:58.543Z,1008.92
2018-09-08T12:03:58.591Z,1008.92
2018-09-08T12:04:58.540Z,1008.92
2018-09-08T12:05:58.602Z,1008.92
2018-09-08T12:06:58.525Z,1008.92